createdAt,value
2018-04-12T00:00:57.298Z,43.70
2018-04-12T00:01:57.294Z,41.30
2018-04-12T00:02:57.297Z,41.30
2018-04-12T00:03:57.298Z,42.00
2018-04-12T00:04:57.303Z,41.80
2018-04-12T00:05:57.309Z,44.00
2018-04-12T00:06:57.310Z,40.50
2018-04-12T00:07:57.317Z,42.60
2018-04-12T00:08:57.314Z,40.00
2018-04-12T00:09:57.322Z,41.10
2018-04-12T00:10:57.318Z,40.50
2018-04-12T00:11:57.324Z,39.80
2018-04-12T00:12:57.327Z,40.40
2018-04-12T00:13:57.331Z,41.60
2018-04-12T00:14:57.331Z,41.10
2018-04-12T00:15:57.338Z,39.20
2018-04-12T00:16:57.336Z,40.80
2018-04-12T00:17:57.404Z,39.70
2018-04-12T00:18:57.409Z,40.20
2018-04-12T00:19:57.343Z,38.60
2018-04-12T00:20:57.350Z,39.20
2018-04-12T00:21:57.356Z,39.70
2018-04-12T00:22:57.352Z,39.60
2018-04-12T00:23:57.356Z,38.50
2018-04-12T00:24:57.417Z,38.50
2018-04-12T00:25:57.361Z,39.80
2018-04-12T00:26:57.362Z,38.80
2018-04-12T00:27:57.366Z,38.10
2018-04-12T00:28:57.367Z,38.80
2018-04-12T00:29:57.371Z,39.00
2018-04-12T00:30:57.373Z,39.90
2018-04-12T00:31:57.380Z,38.70
2018-04-12T00:32:57.380Z,39.10
2018-04-12T00:33:57.382Z,38.60
2018-04-12T00:34:57.384Z,38.60
2018-04-12T00:35:57.391Z,38.80
2018-04-12T00:36:57.393Z,38.00
2018-04-12T00:37:57.394Z,38.40
2018-04-12T00:38:57.398Z,37.60
2018-04-12T00:39:57.403Z,37.10
2018-04-12T00:40:57.408Z,37.10
2018-04-12T00:41:57.408Z,37.00
2018-04-12T00:42:57.420Z,37.70
2018-04-12T00:43:57.412Z,38.30
2018-04-12T00:44:57.416Z,38.40
2018-04-12T00:45:57.422Z,37.70
2018-04-12T00:46:57.417Z,38.10
2018-04-12T00:47:57.420Z,37.30
2018-04-12T00:48:57.423Z,37.00
2018-04-12T00:49:57.426Z,38.60
2018-04-12T00:50:57.432Z,37.10
2018-04-12T00:51:57.501Z,38.30
2018-04-12T00:52:57.433Z,39.20
2018-04-12T00:53:57.435Z,38.60
2018-04-12T00:54:57.439Z,37.30
2018-04-12T00:55:57.442Z,37.60
2018-04-12T00:56:57.444Z,38.20
2018-04-12T00:57:57.453Z,37.80
2018-04-12T00:58:57.451Z,38.30
2018-04-12T00:59:57.454Z,37.50
2018-04-12T01:00:57.456Z,38.40
2018-04-12T01:01:57.461Z,37.50
2018-04-12T01:02:57.465Z,38.00
2018-04-12T01:03:57.463Z,37.30
2018-04-12T01:04:57.471Z,38.50
2018-04-12T01:05:57.475Z,38.10
2018-04-12T01:06:57.471Z,36.90
2018-04-12T01:07:57.480Z,38.00
2018-04-12T01:08:57.477Z,38.60
2018-04-12T01:09:57.498Z,37.60
2018-04-12T01:10:57.481Z,40.50
2018-04-12T01:11:57.484Z,38.20
2018-04-12T01:12:57.488Z,37.70
2018-04-12T01:13:57.489Z,39.10
2018-04-12T01:14:57.492Z,41.10
2018-04-12T01:15:57.494Z,39.40
2018-04-12T01:16:57.497Z,39.20
2018-04-12T01:17:57.499Z,38.30
2018-04-12T01:18:57.503Z,38.70
2018-04-12T01:19:57.509Z,38.50
2018-04-12T01:20:57.510Z,39.20
2018-04-12T01:21:57.511Z,39.20
2018-04-12T01:22:57.511Z,39.20
2018-04-12T01:23:57.517Z,39.90
2018-04-12T01:24:57.521Z,39.80
2018-04-12T01:25:57.523Z,39.30
2018-04-12T01:26:57.531Z,40.10
2018-04-12T01:27:57.531Z,39.10
2018-04-12T01:28:57.547Z,40.50
2018-04-12T01:29:57.531Z,40.30
2018-04-12T01:30:57.544Z,39.70
2018-04-12T01:31:57.535Z,37.90
2018-04-12T01:32:57.540Z,41.70
2018-04-12T01:33:57.542Z,39.40
2018-04-12T01:34:57.544Z,39.50
2018-04-12T01:35:57.553Z,39.60
2018-04-12T01:36:57.550Z,39.50
2018-04-12T01:37:57.555Z,40.80
2018-04-12T01:38:57.557Z,38.50
2018-04-12T01:39:57.557Z,40.30
2018-04-12T01:40:57.559Z,40.40
2018-04-12T01:41:57.564Z,40.00
2018-04-12T01:42:57.564Z,41.30
2018-04-12T01:43:57.566Z,40.80
2018-04-12T01:44:57.572Z,40.60
2018-04-12T01:45:57.577Z,41.20
2018-04-12T01:46:57.573Z,40.40
2018-04-12T01:47:57.577Z,40.90
2018-04-12T01:48:57.586Z,40.50
2018-04-12T01:49:57.588Z,41.00
2018-04-12T01:50:57.600Z,41.90
2018-04-12T01:51:57.589Z,41.20
2018-04-12T01:52:57.589Z,41.60
2018-04-12T01:53:57.591Z,41.90
2018-04-12T01:54:57.594Z,42.70
2018-04-12T01:55:57.596Z,42.50
2018-04-12T01:56:57.599Z,42.30
2018-04-12T01:57:57.604Z,42.60
2018-04-12T01:58:59.788Z,44.00
2018-04-12T02:00:00.350Z,43.20
2018-04-12T02:00:59.021Z,44.00
2018-04-12T02:02:00.789Z,43.00
2018-04-12T02:02:59.706Z,42.00
2018-04-12T02:03:57.618Z,43.80
2018-04-12T02:04:57.625Z,42.60
2018-04-12T02:05:57.625Z,42.30
2018-04-12T02:06:57.625Z,42.80
2018-04-12T02:07:57.626Z,43.10
2018-04-12T02:08:57.632Z,43.40
2018-04-12T02:09:57.633Z,43.70
2018-04-12T02:10:57.635Z,44.70
2018-04-12T02:11:57.650Z,42.70
2018-04-12T02:12:57.643Z,43.20
2018-04-12T02:13:57.696Z,43.60
2018-04-12T02:14:57.652Z,44.00
2018-04-12T02:15:57.648Z,43.90
2018-04-12T02:16:57.650Z,44.40
2018-04-12T02:17:57.664Z,45.90
2018-04-12T02:18:57.656Z,44.40
2018-04-12T02:19:57.658Z,44.30
2018-04-12T02:20:57.661Z,44.10
2018-04-12T02:21:57.665Z,44.50
2018-04-12T02:22:57.665Z,44.40
2018-04-12T02:23:57.670Z,44.80
2018-04-12T02:24:57.671Z,45.70
2018-04-12T02:25:57.675Z,43.70
2018-04-12T02:26:57.675Z,44.40
2018-04-12T02:27:57.680Z,44.50
2018-04-12T02:28:57.688Z,44.60
2018-04-12T02:29:57.684Z,44.20
2018-04-12T02:30:57.686Z,43.70
2018-04-12T02:31:57.688Z,44.50
2018-04-12T02:32:57.694Z,44.80
2018-04-12T02:33:57.695Z,44.40
2018-04-12T02:34:57.698Z,45.20
2018-04-12T02:35:57.704Z,43.70
2018-04-12T02:36:57.751Z,44.70
2018-04-12T02:37:57.755Z,44.40
2018-04-12T02:38:57.713Z,44.70
2018-04-12T02:39:57.708Z,46.50
2018-04-12T02:40:57.712Z,45.30
2018-04-12T02:41:57.780Z,45.20
2018-04-12T02:42:57.715Z,45.30
2018-04-12T02:43:57.720Z,45.70
2018-04-12T02:44:57.721Z,45.50
2018-04-12T02:45:57.725Z,45.90
2018-04-12T02:46:57.848Z,46.60
2018-04-12T02:47:57.729Z,44.90
2018-04-12T02:48:57.733Z,45.70
2018-04-12T02:49:57.772Z,45.90
2018-04-12T02:50:57.735Z,45.90
2018-04-12T02:51:57.736Z,45.30
2018-04-12T02:52:57.737Z,46.80
2018-04-12T02:53:57.742Z,44.60
2018-04-12T02:54:57.743Z,46.10
2018-04-12T02:55:57.750Z,45.30
2018-04-12T02:56:57.751Z,46.60
2018-04-12T02:57:57.758Z,46.50
2018-04-12T02:58:57.760Z,47.50
2018-04-12T02:59:57.759Z,49.00
2018-04-12T03:00:57.765Z,46.60
2018-04-12T03:01:57.777Z,48.00
2018-04-12T03:02:57.760Z,48.20
2018-04-12T03:03:57.767Z,47.10
2018-04-12T03:04:57.769Z,45.80
2018-04-12T03:05:57.776Z,49.70
2018-04-12T03:06:57.768Z,50.20
2018-04-12T03:07:57.770Z,47.80
2018-04-12T03:08:57.776Z,49.70
2018-04-12T03:09:57.777Z,50.10
2018-04-12T03:10:57.787Z,49.40
2018-04-12T03:11:57.783Z,50.20
2018-04-12T03:12:57.806Z,48.70
2018-04-12T03:13:57.797Z,50.80
2018-04-12T03:14:57.793Z,51.40
2018-04-12T03:15:57.792Z,49.90
2018-04-12T03:16:57.801Z,50.20
2018-04-12T03:17:57.799Z,51.10
2018-04-12T03:18:57.805Z,51.00
2018-04-12T03:19:57.803Z,50.90
2018-04-12T03:20:57.805Z,52.20
2018-04-12T03:21:57.808Z,50.80
2018-04-12T03:22:57.814Z,55.00
2018-04-12T03:23:57.813Z,54.20
2018-04-12T03:24:57.818Z,50.80
2018-04-12T03:25:57.825Z,53.00
2018-04-12T03:26:57.819Z,52.90
2018-04-12T03:27:57.821Z,52.50
2018-04-12T03:28:57.830Z,53.30
2018-04-12T03:29:57.827Z,55.40
2018-04-12T03:30:57.833Z,52.20
2018-04-12T03:31:57.830Z,51.80
2018-04-12T03:32:57.835Z,55.00
2018-04-12T03:33:57.835Z,56.30
2018-04-12T03:34:57.842Z,53.50
2018-04-12T03:35:57.848Z,55.60
2018-04-12T03:36:57.840Z,58.40
2018-04-12T03:37:57.847Z,55.90
2018-04-12T03:38:57.846Z,55.20
2018-04-12T03:39:57.850Z,57.70
2018-04-12T03:40:57.860Z,54.50
2018-04-12T03:41:57.863Z,56.10
2018-04-12T03:42:58.728Z,57.90
2018-04-12T03:43:57.869Z,56.50
2018-04-12T03:44:57.875Z,56.60
2018-04-12T03:45:57.894Z,56.50
2018-04-12T03:46:57.868Z,56.10
2018-04-12T03:47:57.866Z,59.90
2018-04-12T03:48:57.890Z,57.20
2018-04-12T03:49:57.876Z,55.80
2018-04-12T03:50:57.875Z,57.10
2018-04-12T03:51:57.880Z,53.60
2018-04-12T03:52:57.884Z,59.30
2018-04-12T03:53:57.885Z,54.90
2018-04-12T03:54:57.892Z,57.00
2018-04-12T03:55:57.890Z,56.30
2018-04-12T03:56:57.891Z,54.80
2018-04-12T03:57:57.900Z,60.60
2018-04-12T03:58:57.891Z,56.70
2018-04-12T03:59:57.899Z,58.10
2018-04-12T04:00:57.903Z,57.90
2018-04-12T04:01:57.900Z,61.80
2018-04-12T04:02:57.916Z,61.20
2018-04-12T04:03:57.909Z,56.40
2018-04-12T04:04:57.944Z,58.00
2018-04-12T04:05:57.920Z,58.50
2018-04-12T04:06:57.928Z,59.30
2018-04-12T04:07:57.917Z,60.10
2018-04-12T04:08:57.920Z,56.20
2018-04-12T04:09:57.930Z,62.40
2018-04-12T04:10:57.935Z,57.90
2018-04-12T04:11:57.923Z,59.80
2018-04-12T04:12:57.927Z,58.90
2018-04-12T04:13:57.932Z,60.10
2018-04-12T04:14:57.934Z,62.40
2018-04-12T04:15:57.933Z,61.50
2018-04-12T04:16:57.939Z,60.70
2018-04-12T04:17:57.939Z,61.60
2018-04-12T04:18:57.943Z,59.80
2018-04-12T04:19:57.940Z,57.60
2018-04-12T04:20:57.953Z,59.30
2018-04-12T04:21:57.949Z,57.90
2018-04-12T04:22:57.959Z,64.30
2018-04-12T04:23:57.955Z,59.50
2018-04-12T04:24:57.961Z,60.40
2018-04-12T04:25:57.962Z,58.00
2018-04-12T04:26:57.960Z,62.50
2018-04-12T04:27:57.980Z,59.90
2018-04-12T04:28:57.965Z,60.30
2018-04-12T04:29:57.976Z,58.10
2018-04-12T04:30:57.973Z,56.60
2018-04-12T04:31:57.970Z,57.10
2018-04-12T04:32:57.981Z,58.20
2018-04-12T04:33:57.976Z,56.80
2018-04-12T04:34:57.987Z,59.80
2018-04-12T04:35:57.982Z,55.30
2018-04-12T04:36:57.987Z,60.00
2018-04-12T04:37:57.988Z,59.10
2018-04-12T04:38:57.991Z,57.70
2018-04-12T04:39:58.000Z,55.80
2018-04-12T04:40:58.003Z,61.70
2018-04-12T04:41:58.000Z,55.90
2018-04-12T04:42:58.004Z,55.40
2018-04-12T04:43:58.005Z,55.80
2018-04-12T04:44:58.006Z,55.20
2018-04-12T04:45:58.009Z,55.00
2018-04-12T04:46:58.012Z,61.60
2018-04-12T04:47:58.010Z,57.30
2018-04-12T04:48:58.022Z,64.30
2018-04-12T04:49:58.028Z,57.50
2018-04-12T04:50:58.033Z,58.50
2018-04-12T04:51:58.029Z,61.30
2018-04-12T04:52:58.057Z,57.00
2018-04-12T04:53:58.028Z,58.80
2018-04-12T04:54:58.062Z,59.50
2018-04-12T04:55:58.060Z,58.20
2018-04-12T04:56:58.748Z,63.00
2018-04-12T04:57:58.037Z,61.10
2018-04-12T04:58:58.043Z,58.90
2018-04-12T04:59:58.040Z,61.70
2018-04-12T05:00:58.052Z,59.50
2018-04-12T05:01:58.065Z,60.00
2018-04-12T05:02:58.058Z,59.20
2018-04-12T05:03:58.057Z,60.70
2018-04-12T05:04:58.053Z,61.20
2018-04-12T05:05:58.067Z,59.70
2018-04-12T05:06:58.058Z,63.70
2018-04-12T05:07:58.105Z,63.20
2018-04-12T05:08:58.066Z,67.30
2018-04-12T05:09:58.090Z,65.70
2018-04-12T05:10:58.073Z,65.70
2018-04-12T05:11:58.071Z,67.40
2018-04-12T05:12:58.081Z,65.50
2018-04-12T05:13:58.092Z,69.10
2018-04-12T05:14:58.093Z,72.90
2018-04-12T05:15:58.155Z,66.70
2018-04-12T05:16:58.103Z,62.00
2018-04-12T05:17:58.090Z,65.10
2018-04-12T05:18:58.098Z,66.70
2018-04-12T05:19:58.091Z,67.70
2018-04-12T05:20:58.134Z,68.50
2018-04-12T05:21:58.097Z,67.70
2018-04-12T05:22:58.107Z,66.50
2018-04-12T05:23:58.104Z,69.80
2018-04-12T05:24:58.109Z,67.40
2018-04-12T05:25:58.111Z,64.00
2018-04-12T05:26:58.115Z,65.60
2018-04-12T05:27:58.119Z,69.60
2018-04-12T05:28:58.114Z,64.20
2018-04-12T05:29:58.134Z,68.20
2018-04-12T05:30:58.124Z,65.80
2018-04-12T05:31:58.129Z,66.90
2018-04-12T05:32:58.130Z,64.40
2018-04-12T05:33:58.198Z,68.60
2018-04-12T05:34:58.147Z,66.40
2018-04-12T05:35:58.140Z,66.70
2018-04-12T05:36:58.155Z,63.90
2018-04-12T05:37:58.147Z,69.30
2018-04-12T05:38:58.165Z,65.90
2018-04-12T05:39:58.184Z,69.50
2018-04-12T05:40:58.201Z,61.10
2018-04-12T05:41:58.156Z,67.50
2018-04-12T05:42:58.161Z,64.60
2018-04-12T05:43:58.155Z,64.10
2018-04-12T05:44:58.161Z,65.90
2018-04-12T05:45:58.166Z,64.50
2018-04-12T05:46:58.165Z,68.70
2018-04-12T05:47:58.174Z,63.80
2018-04-12T05:48:58.168Z,64.50
2018-04-12T05:49:58.173Z,64.10
2018-04-12T05:50:58.178Z,63.40
2018-04-12T05:51:58.178Z,65.20
2018-04-12T05:52:58.190Z,64.30
2018-04-12T05:53:58.181Z,64.60
2018-04-12T05:54:58.190Z,64.80
2018-04-12T05:55:58.193Z,64.70
2018-04-12T05:56:58.197Z,62.70
2018-04-12T05:57:58.195Z,64.70
2018-04-12T05:58:58.218Z,60.20
2018-04-12T05:59:58.203Z,59.20
2018-04-12T06:00:58.210Z,63.60
2018-04-12T06:01:58.216Z,63.20
2018-04-12T06:02:58.214Z,64.70
2018-04-12T06:03:58.213Z,61.80
2018-04-12T06:04:58.220Z,59.00
2018-04-12T06:05:58.219Z,59.90
2018-04-12T06:06:58.224Z,58.30
2018-04-12T06:07:58.221Z,62.30
2018-04-12T06:08:58.227Z,61.30
2018-04-12T06:09:58.227Z,58.00
2018-04-12T06:10:58.233Z,60.70
2018-04-12T06:11:58.229Z,58.70
2018-04-12T06:12:58.241Z,60.90
2018-04-12T06:13:58.236Z,58.00
2018-04-12T06:14:58.247Z,59.70
2018-04-12T06:15:58.248Z,61.40
2018-04-12T06:16:58.257Z,56.60
2018-04-12T06:17:58.248Z,63.30
2018-04-12T06:18:58.261Z,55.80
2018-04-12T06:19:58.262Z,57.80
2018-04-12T06:20:58.266Z,51.90
2018-04-12T06:21:58.262Z,57.50
2018-04-12T06:22:58.298Z,56.00
2018-04-12T06:23:58.273Z,59.40
2018-04-12T06:24:58.274Z,55.10
2018-04-12T06:25:58.286Z,54.40
2018-04-12T06:26:58.284Z,55.50
2018-04-12T06:27:58.288Z,53.10
2018-04-12T06:28:58.282Z,58.50
2018-04-12T06:29:58.285Z,56.50
2018-04-12T06:30:58.297Z,58.30
2018-04-12T06:31:58.291Z,58.80
2018-04-12T06:32:58.292Z,58.90
2018-04-12T06:33:58.302Z,60.00
2018-04-12T06:34:58.301Z,57.60
2018-04-12T06:35:58.307Z,56.30
2018-04-12T06:36:58.305Z,61.70
2018-04-12T06:37:58.305Z,59.90
2018-04-12T06:38:58.310Z,60.90
2018-04-12T06:39:58.318Z,56.80
2018-04-12T06:40:58.316Z,59.40
2018-04-12T06:41:58.323Z,57.60
2018-04-12T06:42:58.330Z,55.70
2018-04-12T06:43:58.327Z,58.50
2018-04-12T06:44:58.328Z,57.70
2018-04-12T06:45:58.329Z,59.10
2018-04-12T06:46:58.343Z,57.70
2018-04-12T06:47:58.335Z,58.10
2018-04-12T06:48:58.338Z,61.70
2018-04-12T06:49:58.344Z,60.20
2018-04-12T06:50:58.354Z,55.00
2018-04-12T06:51:58.367Z,60.60
2018-04-12T06:52:58.346Z,54.60
2018-04-12T06:53:58.353Z,55.60
2018-04-12T06:54:58.356Z,53.40
2018-04-12T06:55:58.359Z,57.30
2018-04-12T06:56:58.369Z,56.70
2018-04-12T06:57:58.362Z,59.10
2018-04-12T06:58:58.371Z,53.80
2018-04-12T06:59:58.368Z,54.00
2018-04-12T07:00:58.376Z,55.50
2018-04-12T07:01:58.374Z,57.50
2018-04-12T07:02:58.399Z,55.00
2018-04-12T07:03:58.385Z,56.50
2018-04-12T07:04:58.386Z,54.70
2018-04-12T07:05:59.322Z,56.10
2018-04-12T07:06:58.392Z,54.50
2018-04-12T07:07:58.387Z,56.10
2018-04-12T07:08:58.394Z,53.10
2018-04-12T07:09:58.395Z,56.10
2018-04-12T07:10:58.406Z,53.10
2018-04-12T07:11:58.404Z,51.00
2018-04-12T07:12:58.408Z,52.70
2018-04-12T07:13:58.412Z,53.30
2018-04-12T07:14:58.567Z,53.60
2018-04-12T07:15:58.413Z,50.40
2018-04-12T07:16:58.425Z,53.70
2018-04-12T07:17:58.417Z,47.80
2018-04-12T07:18:58.441Z,51.70
2018-04-12T07:19:58.612Z,47.20
2018-04-12T07:20:58.469Z,48.30
2018-04-12T07:21:58.430Z,47.50
2018-04-12T07:22:58.434Z,47.60
2018-04-12T07:23:58.439Z,46.50
2018-04-12T07:24:58.442Z,48.60
2018-04-12T07:25:58.450Z,48.20
2018-04-12T07:26:58.445Z,49.00
2018-04-12T07:27:58.502Z,49.70
2018-04-12T07:28:58.457Z,47.00
2018-04-12T07:29:58.463Z,45.40
2018-04-12T07:30:58.457Z,48.50
2018-04-12T07:31:58.464Z,46.00
2018-04-12T07:32:58.487Z,48.90
2018-04-12T07:33:58.465Z,47.50
2018-04-12T07:34:58.470Z,44.70
2018-04-12T07:35:58.477Z,47.40
2018-04-12T07:36:58.482Z,44.50
2018-04-12T07:37:58.481Z,45.20
2018-04-12T07:38:58.485Z,41.30
2018-04-12T07:39:58.485Z,44.40
2018-04-12T07:40:58.498Z,39.20
2018-04-12T07:41:58.508Z,40.20
2018-04-12T07:42:58.504Z,38.90
2018-04-12T07:43:58.510Z,40.00
2018-04-12T07:44:58.577Z,37.10
2018-04-12T07:45:58.506Z,43.40
2018-04-12T07:46:58.512Z,38.60
2018-04-12T07:47:58.514Z,39.20
2018-04-12T07:48:58.526Z,41.30
2018-04-12T07:49:58.521Z,37.70
2018-04-12T07:50:58.526Z,40.00
2018-04-12T07:51:58.531Z,39.70
2018-04-12T07:52:58.537Z,39.00
2018-04-12T07:53:58.531Z,39.90
2018-04-12T07:54:58.544Z,37.70
2018-04-12T07:55:58.543Z,37.00
2018-04-12T07:56:58.602Z,40.20
2018-04-12T07:57:58.590Z,38.70
2018-04-12T07:58:58.556Z,38.10
2018-04-12T07:59:58.675Z,40.00
2018-04-12T08:00:58.697Z,38.70
2018-04-12T08:01:59.441Z,38.20
2018-04-12T08:02:58.585Z,36.80
2018-04-12T08:03:58.578Z,39.50
2018-04-12T08:04:58.753Z,42.20
2018-04-12T08:05:58.779Z,41.70
2018-04-12T08:06:58.768Z,38.10
2018-04-12T08:07:58.737Z,37.20
2018-04-12T08:08:58.599Z,42.30
2018-04-12T08:09:58.600Z,38.30
2018-04-12T08:10:58.731Z,39.20
2018-04-12T08:11:58.603Z,38.10
2018-04-12T08:12:58.640Z,39.90
2018-04-12T08:13:58.616Z,42.80
2018-04-12T08:14:58.622Z,39.10
2018-04-12T08:15:58.624Z,38.50
2018-04-12T08:16:58.621Z,38.50
2018-04-12T08:17:58.632Z,39.20
2018-04-12T08:18:58.631Z,38.50
2018-04-12T08:19:58.639Z,37.40
2018-04-12T08:20:58.636Z,38.70
2018-04-12T08:21:58.644Z,38.00
2018-04-12T08:22:58.644Z,37.40
2018-04-12T08:23:58.693Z,37.40
2018-04-12T08:24:58.652Z,35.80
2018-04-12T08:25:58.654Z,39.80
2018-04-12T08:26:58.660Z,38.50
2018-04-12T08:27:58.664Z,37.70
2018-04-12T08:28:58.670Z,39.40
2018-04-12T08:29:58.678Z,34.20
2018-04-12T08:30:58.674Z,34.40
2018-04-12T08:31:58.686Z,36.40
2018-04-12T08:32:58.700Z,34.70
2018-04-12T08:33:58.695Z,35.10
2018-04-12T08:34:58.702Z,37.00
2018-04-12T08:35:58.706Z,32.90
2018-04-12T08:36:58.699Z,34.30
2018-04-12T08:37:58.708Z,35.70
2018-04-12T08:38:58.717Z,33.90
2018-04-12T08:39:58.724Z,30.80
2018-04-12T08:40:58.727Z,31.90
2018-04-12T08:41:58.726Z,32.10
2018-04-12T08:42:58.727Z,33.20
2018-04-12T08:43:58.736Z,30.40
2018-04-12T08:44:58.750Z,33.60
2018-04-12T08:45:58.769Z,29.80
2018-04-12T08:46:58.755Z,33.40
2018-04-12T08:47:58.760Z,31.10
2018-04-12T08:48:58.781Z,33.60
2018-04-12T08:49:58.785Z,32.20
2018-04-12T08:50:58.818Z,30.50
2018-04-12T08:51:58.852Z,30.30
2018-04-12T08:52:58.792Z,32.40
2018-04-12T08:53:58.797Z,31.30
2018-04-12T08:54:58.808Z,32.00
2018-04-12T08:55:58.812Z,35.80
2018-04-12T08:56:58.853Z,29.90
2018-04-12T08:57:58.797Z,33.50
2018-04-12T08:58:58.799Z,31.80
2018-04-12T08:59:58.805Z,30.30
2018-04-12T09:00:58.811Z,31.60
2018-04-12T09:01:58.834Z,31.40
2018-04-12T09:02:58.820Z,33.30
2018-04-12T09:03:58.828Z,33.70
2018-04-12T09:04:58.823Z,32.00
2018-04-12T09:05:58.834Z,30.70
2018-04-12T09:06:58.837Z,34.20
2018-04-12T09:07:58.839Z,34.30
2018-04-12T09:08:58.889Z,30.80
2018-04-12T09:09:58.844Z,32.70
2018-04-12T09:10:58.855Z,30.10
2018-04-12T09:11:58.861Z,34.80
2018-04-12T09:12:58.860Z,31.90
2018-04-12T09:13:58.867Z,32.80
2018-04-12T09:14:58.872Z,31.80
2018-04-12T09:15:58.878Z,29.80
2018-04-12T09:16:58.874Z,30.60
2018-04-12T09:17:58.938Z,29.80
2018-04-12T09:18:58.887Z,30.10
2018-04-12T09:19:58.895Z,30.00
2018-04-12T09:20:58.901Z,31.90
2018-04-12T09:21:58.896Z,31.30
2018-04-12T09:22:58.909Z,30.20
2018-04-12T09:23:58.915Z,30.40
2018-04-12T09:24:58.917Z,30.40
2018-04-12T09:25:58.919Z,30.40
2018-04-12T09:26:58.928Z,28.50
2018-04-12T09:27:58.931Z,27.90
2018-04-12T09:28:58.937Z,27.10
2018-04-12T09:29:58.979Z,28.10
2018-04-12T09:30:58.942Z,26.80
2018-04-12T09:31:58.951Z,27.30
2018-04-12T09:32:58.951Z,27.60
2018-04-12T09:33:58.958Z,28.20
2018-04-12T09:34:58.968Z,26.50
2018-04-12T09:35:58.970Z,27.70
2018-04-12T09:36:58.978Z,26.00
2018-04-12T09:37:59.041Z,26.90
2018-04-12T09:38:58.992Z,26.10
2018-04-12T09:39:58.997Z,26.20
2018-04-12T09:40:59.012Z,26.60
2018-04-12T09:41:59.008Z,25.20
2018-04-12T09:42:59.022Z,24.90
2018-04-12T09:43:59.027Z,24.80
2018-04-12T09:44:59.039Z,27.10
2018-04-12T09:45:59.040Z,26.70
2018-04-12T09:46:59.080Z,26.30
2018-04-12T09:47:59.098Z,26.30
2018-04-12T09:48:59.093Z,25.60
2018-04-12T09:49:59.071Z,25.60
2018-04-12T09:50:59.081Z,25.70
2018-04-12T09:51:59.084Z,26.40
2018-04-12T09:52:59.127Z,25.40
2018-04-12T09:53:59.100Z,26.00
2018-04-12T09:54:59.143Z,26.10
2018-04-12T09:55:59.129Z,26.30
2018-04-12T09:56:59.154Z,27.40
2018-04-12T09:57:59.152Z,26.60
2018-04-12T09:58:59.166Z,25.90
2018-04-12T09:59:59.224Z,25.90
2018-04-12T10:00:59.184Z,26.40
2018-04-12T10:01:59.187Z,25.30
2018-04-12T10:02:59.193Z,25.70
2018-04-12T10:03:59.199Z,24.90
2018-04-12T10:04:59.214Z,25.60
2018-04-12T10:05:59.228Z,26.10
2018-04-12T10:06:59.218Z,25.70
2018-04-12T10:07:59.211Z,24.90
2018-04-12T10:08:59.283Z,24.90
2018-04-12T10:09:59.241Z,26.70
2018-04-12T10:10:59.251Z,25.20
2018-04-12T10:11:59.249Z,26.00
2018-04-12T10:12:59.261Z,26.00
2018-04-12T10:13:59.264Z,26.00
2018-04-12T10:14:59.282Z,24.20
2018-04-12T10:15:59.337Z,24.30
2018-04-12T10:16:59.445Z,24.20
2018-04-12T10:17:59.303Z,23.50
2018-04-12T10:18:59.332Z,26.90
2018-04-12T10:19:59.321Z,23.50
2018-04-12T10:20:59.326Z,26.00
2018-04-12T10:21:59.329Z,26.40
2018-04-12T10:22:59.339Z,25.30
2018-04-12T10:23:59.346Z,23.80
2018-04-12T10:24:59.359Z,24.20
2018-04-12T10:25:59.367Z,25.70
2018-04-12T10:26:59.371Z,22.80
2018-04-12T10:27:59.385Z,23.50
2018-04-12T10:28:59.432Z,23.00
2018-04-12T10:29:59.403Z,26.00
2018-04-12T10:30:59.409Z,23.60
2018-04-12T10:31:59.476Z,25.20
2018-04-12T10:32:59.442Z,23.20
2018-04-12T10:33:59.442Z,21.60
2018-04-12T10:34:59.445Z,22.20
2018-04-12T10:35:59.456Z,22.80
2018-04-12T10:36:59.459Z,22.90
2018-04-12T10:37:59.463Z,22.40
2018-04-12T10:38:59.479Z,21.40
2018-04-12T10:39:59.484Z,21.60
2018-04-12T10:40:59.508Z,22.00
2018-04-12T10:41:59.503Z,21.30
2018-04-12T10:42:59.517Z,23.30
2018-04-12T10:43:59.521Z,21.20
2018-04-12T10:44:59.541Z,20.20
2018-04-12T10:45:59.543Z,23.20
2018-04-12T10:46:59.563Z,21.40
2018-04-12T10:47:59.572Z,22.60
2018-04-12T10:48:59.612Z,21.30
2018-04-12T10:49:59.588Z,20.30
2018-04-12T10:50:59.614Z,20.40
2018-04-12T10:51:59.664Z,24.50
2018-04-12T10:52:59.631Z,20.50
2018-04-12T10:53:59.649Z,23.20
2018-04-12T10:54:59.656Z,21.30
2018-04-12T10:55:59.661Z,20.00
2018-04-12T10:56:59.669Z,20.80
2018-04-12T10:57:59.688Z,21.60
2018-04-12T10:58:59.693Z,23.00
2018-04-12T10:59:59.713Z,21.30
2018-04-12T11:00:59.719Z,20.90
2018-04-12T11:01:59.736Z,21.90
2018-04-12T11:02:59.738Z,21.80
2018-04-12T11:03:59.754Z,22.00
2018-04-12T11:04:59.791Z,25.10
2018-04-12T11:05:59.818Z,21.20
2018-04-12T11:06:59.794Z,21.90
2018-04-12T11:07:59.801Z,21.70
2018-04-12T11:08:59.822Z,20.90
2018-04-12T11:09:59.827Z,22.90
2018-04-12T11:10:59.847Z,21.60
2018-04-12T11:11:59.859Z,23.10
2018-04-12T11:12:59.877Z,23.90
2018-04-12T11:13:59.897Z,21.50
2018-04-12T11:14:59.887Z,23.20
2018-04-12T11:15:59.904Z,22.70
2018-04-12T11:16:59.915Z,22.10
2018-04-12T11:17:59.921Z,23.40
2018-04-12T11:18:59.942Z,22.80
2018-04-12T11:19:59.958Z,22.20
2018-04-12T11:20:59.995Z,24.20
2018-04-12T11:21:59.970Z,23.40
2018-04-12T11:22:59.980Z,23.50
2018-04-12T11:23:59.992Z,23.70
2018-04-12T11:25:00.010Z,26.70
2018-04-12T11:26:00.035Z,22.90
2018-04-12T11:27:00.028Z,28.60
2018-04-12T11:28:00.036Z,24.90
2018-04-12T11:29:00.051Z,24.70
2018-04-12T11:30:00.095Z,24.10
2018-04-12T11:31:00.066Z,24.60
2018-04-12T11:32:00.105Z,25.70
2018-04-12T11:33:00.084Z,25.30
2018-04-12T11:34:01.406Z,23.20
2018-04-12T11:35:00.122Z,23.50
2018-04-12T11:36:00.121Z,25.50
2018-04-12T11:37:00.190Z,24.30
2018-04-12T11:38:00.144Z,23.30
2018-04-12T11:39:00.148Z,25.90
2018-04-12T11:40:00.161Z,24.50
2018-04-12T11:41:00.173Z,26.80
2018-04-12T11:42:00.250Z,25.20
2018-04-12T11:43:00.195Z,27.30
2018-04-12T11:44:00.208Z,24.00
2018-04-12T11:45:00.212Z,24.60
2018-04-12T11:46:00.221Z,25.00
2018-04-12T11:47:00.233Z,26.40
2018-04-12T11:48:00.243Z,26.60
2018-04-12T11:49:00.279Z,26.40
2018-04-12T11:50:00.281Z,26.20
2018-04-12T11:51:00.279Z,27.40
2018-04-12T11:52:00.281Z,26.60
2018-04-12T11:53:00.291Z,26.00
2018-04-12T11:54:00.303Z,26.00
2018-04-12T11:55:00.341Z,26.00
2018-04-12T11:56:00.337Z,29.30
2018-04-12T11:57:00.332Z,26.40
2018-04-12T11:58:01.547Z,29.00
2018-04-12T11:59:00.351Z,28.10
2018-04-12T12:00:00.361Z,25.80
2018-04-12T12:01:00.367Z,29.10
2018-04-12T12:02:00.380Z,27.80
2018-04-12T12:03:00.385Z,27.50
2018-04-12T12:04:00.400Z,29.80
2018-04-12T12:05:00.404Z,27.90
2018-04-12T12:06:00.418Z,28.70
2018-04-12T12:07:00.452Z,27.30
2018-04-12T12:08:00.429Z,29.60
2018-04-12T12:09:00.440Z,29.20
2018-04-12T12:10:00.452Z,31.10
2018-04-12T12:11:00.453Z,30.30
2018-04-12T12:12:00.461Z,31.50
2018-04-12T12:13:00.478Z,29.50
2018-04-12T12:14:00.483Z,32.30
2018-04-12T12:15:00.492Z,28.60
2018-04-12T12:16:00.497Z,31.40
2018-04-12T12:17:00.523Z,30.10
2018-04-12T12:18:00.524Z,33.30
2018-04-12T12:19:00.520Z,30.10
2018-04-12T12:20:00.535Z,32.40
2018-04-12T12:21:00.547Z,33.00
2018-04-12T12:22:00.551Z,33.00
2018-04-12T12:23:00.571Z,34.20
2018-04-12T12:24:00.565Z,37.00
2018-04-12T12:25:00.583Z,31.40
2018-04-12T12:26:00.589Z,34.70
2018-04-12T12:27:00.591Z,36.30
2018-04-12T12:28:00.603Z,34.10
2018-04-12T12:29:00.610Z,35.70
2018-04-12T12:30:00.613Z,32.60
2018-04-12T12:31:00.627Z,35.60
2018-04-12T12:32:00.636Z,35.80
2018-04-12T12:33:00.637Z,36.40
2018-04-12T12:34:00.662Z,33.70
2018-04-12T12:35:00.660Z,33.20
2018-04-12T12:36:00.661Z,34.70
2018-04-12T12:37:00.671Z,34.80
2018-04-12T12:38:00.679Z,36.20
2018-04-12T12:39:00.681Z,34.60
2018-04-12T12:40:00.706Z,33.90
2018-04-12T12:41:00.701Z,34.80
2018-04-12T12:42:00.706Z,36.80
2018-04-12T12:43:00.708Z,38.90
2018-04-12T12:44:00.719Z,37.00
2018-04-12T12:45:00.728Z,38.90
2018-04-12T12:46:00.732Z,36.10
2018-04-12T12:47:00.750Z,37.50
2018-04-12T12:48:00.747Z,35.20
2018-04-12T12:49:00.758Z,35.60
2018-04-12T12:50:00.827Z,39.00
2018-04-12T12:51:00.814Z,39.60
2018-04-12T12:52:00.775Z,37.10
2018-04-12T12:53:00.789Z,36.90